createdAt,value
2024-02-22T00:02:03.927Z,99667.84
2024-02-22T00:04:31.403Z,99663.56
2024-02-22T00:06:59.098Z,99660.97
2024-02-22T00:09:26.542Z,99660.97
2024-02-22T00:11:55.078Z,99647.28
2024-02-22T00:14:22.913Z,99650.72
2024-02-22T00:16:50.862Z,99643.00
2024-02-22T00:19:19.345Z,99630.19
2024-02-22T00:21:47.062Z,99613.94
2024-02-22T00:24:14.460Z,99634.44
2024-02-22T00:26:41.778Z,99621.63
2024-02-22T00:29:09.360Z,99611.34
2024-02-22T00:31:36.901Z,99610.53
2024-02-22T00:34:04.549Z,99606.22
2024-02-22T00:36:43.864Z,99611.34
2024-02-22T00:39:11.689Z,99607.09
2024-02-22T00:41:39.608Z,99597.69
2024-02-22T00:44:08.821Z,99594.25
2024-02-22T00:46:37.674Z,99578.88
2024-02-22T00:49:05.503Z,99566.91
2024-02-22T00:51:33.070Z,99571.16
2024-02-22T00:54:00.558Z,99572.03
2024-02-22T00:56:27.914Z,99563.47
2024-02-22T00:58:55.330Z,99561.75
2024-02-22T01:01:22.817Z,99553.22
2024-02-22T01:03:50.394Z,99549.81
2024-02-22T01:06:17.923Z,99553.19
2024-02-22T01:08:45.447Z,99545.53
2024-02-22T01:11:13.068Z,99531.00
2024-02-22T01:13:40.746Z,99518.19
2024-02-22T01:16:08.239Z,99520.75
2024-02-22T01:18:35.768Z,99519.91
2024-02-22T01:21:03.278Z,99512.19
2024-02-22T01:23:30.729Z,99503.63
2024-02-22T01:26:01.223Z,99491.69
2024-02-22T01:28:30.731Z,99491.69
2024-02-22T01:30:58.261Z,99480.59
2024-02-22T01:33:25.755Z,99478.00
2024-02-22T01:35:53.122Z,99474.59
2024-02-22T01:38:20.626Z,99464.34
2024-02-22T01:40:48.145Z,99455.81
2024-02-22T01:43:15.449Z,99458.38
2024-02-22T01:45:42.791Z,99460.06
2024-02-22T01:48:10.900Z,99447.28
2024-02-22T01:50:41.332Z,99441.28
2024-02-22T01:53:10.014Z,99443.84
2024-02-22T01:55:38.121Z,99437.88
2024-02-22T01:58:06.087Z,99438.72
2024-02-22T02:00:34.157Z,99433.59
2024-02-22T02:03:02.621Z,99430.16
2024-02-22T02:05:30.019Z,99430.16
2024-02-22T02:07:57.437Z,99429.31
2024-02-22T02:10:25.095Z,99422.50
2024-02-22T02:12:52.591Z,99419.06
2024-02-22T02:15:19.936Z,99417.38
2024-02-22T02:17:47.265Z,99419.06
2024-02-22T02:20:16.174Z,99409.69
2024-02-22T02:22:43.636Z,99412.25
2024-02-22T02:25:11.407Z,99416.53
2024-02-22T02:27:39.043Z,99407.09
2024-02-22T02:30:07.387Z,99413.97
2024-02-22T02:32:34.801Z,99409.66
2024-02-22T02:35:02.336Z,99402.84
2024-02-22T02:37:29.801Z,99406.25
2024-02-22T02:39:57.254Z,99393.44
2024-02-22T02:42:25.732Z,99399.44
2024-02-22T02:44:53.245Z,99384.06
2024-02-22T02:47:20.954Z,99383.19
2024-02-22T02:49:49.383Z,99366.13
2024-02-22T02:52:16.865Z,99359.28
2024-02-22T02:54:44.336Z,99366.97
2024-02-22T02:57:11.777Z,99361.00
2024-02-22T02:59:39.152Z,99351.59
2024-02-22T03:02:06.830Z,99353.31
2024-02-22T03:04:34.319Z,99339.63
2024-02-22T03:07:01.675Z,99341.34
2024-02-22T03:09:29.068Z,99334.50
2024-02-22T03:11:56.394Z,99338.78
2024-02-22T03:14:23.810Z,99327.69
2024-02-22T03:16:51.196Z,99332.81
2024-02-22T03:19:18.797Z,99328.53
2024-02-22T03:21:46.113Z,99327.66
2024-02-22T03:24:16.071Z,99314.00
2024-02-22T03:26:47.654Z,99309.75
2024-02-22T03:29:15.025Z,99309.75
2024-02-22T03:31:42.997Z,99310.59
2024-02-22T03:34:10.529Z,99310.59
2024-02-22T03:36:37.979Z,99302.03
2024-02-22T03:39:06.575Z,99305.47
2024-02-22T03:41:33.999Z,99300.34
2024-02-22T04:28:39.905Z,99259.28
2024-02-22T04:31:07.156Z,99259.31
2024-02-22T04:33:34.257Z,99245.63
2024-02-22T04:36:02.099Z,99249.06
2024-02-22T04:38:29.348Z,99248.19
2024-02-22T04:40:56.953Z,99242.22
2024-02-22T04:43:24.102Z,99237.09
2024-02-22T04:45:51.419Z,99231.94
2024-02-22T04:48:18.699Z,99222.56
2024-02-22T04:50:45.925Z,99220.88
2024-02-22T04:53:13.837Z,99223.44
2024-02-22T04:55:41.345Z,99210.63
2024-02-22T04:58:08.406Z,99210.59
2024-02-22T05:00:36.228Z,99195.25
2024-02-22T05:03:05.032Z,99190.13
2024-02-22T05:05:32.356Z,99195.25
2024-02-22T05:07:59.709Z,99194.41
2024-02-22T05:10:26.913Z,99182.41
2024-02-22T05:12:54.119Z,99182.41
2024-02-22T05:15:21.371Z,99180.72
2024-02-22T05:17:49.744Z,99168.78
2024-02-22T05:20:17.459Z,99165.34
2024-02-22T05:22:44.814Z,99158.53
2024-02-22T05:25:12.015Z,99155.13
2024-02-22T05:27:40.702Z,99151.72
2024-02-22T05:30:08.801Z,99156.88
2024-02-22T05:32:36.056Z,99160.25
2024-02-22T05:35:03.239Z,99161.16
2024-02-22T05:37:32.301Z,99156.88
2024-02-22T05:40:00.751Z,99143.22
2024-02-22T05:42:27.971Z,99137.25
2024-02-22T05:44:55.265Z,99137.25
2024-02-22T05:47:22.431Z,99138.97
2024-02-22T05:49:49.641Z,99138.13
2024-02-22T05:52:17.047Z,99133.00
2024-02-22T05:54:46.588Z,99137.25
2024-02-22T05:57:14.056Z,99136.41
2024-02-22T05:59:41.353Z,99143.25
2024-02-22T06:02:08.618Z,99137.25
2024-02-22T06:04:35.858Z,99124.47
2024-02-22T06:07:03.478Z,99124.44
2024-02-22T06:09:30.684Z,99121.91
2024-02-22T06:11:58.272Z,99121.03
2024-02-22T06:14:25.480Z,99127.00
2024-02-22T06:16:52.709Z,99107.41
2024-02-22T06:19:19.956Z,99115.91
2024-02-22T06:21:47.318Z,99109.91
2024-02-22T06:24:14.476Z,99104.78
2024-02-22T06:26:41.643Z,99095.41
2024-02-22T06:29:08.952Z,99093.66
2024-02-22T06:31:36.203Z,99098.78
2024-02-22T06:34:03.514Z,99091.06
2024-02-22T06:36:31.463Z,99090.22
2024-02-22T06:38:58.584Z,99090.16
2024-02-22T06:41:26.377Z,99090.16
2024-02-22T06:43:55.805Z,99090.16
2024-02-22T06:46:25.697Z,99081.59
2024-02-22T06:48:53.901Z,99074.75
2024-02-22T06:51:24.484Z,99078.16
2024-02-22T06:53:51.645Z,99064.50
2024-02-22T06:56:18.897Z,99071.25
2024-02-22T06:58:46.171Z,99061.00
2024-02-22T07:01:13.468Z,99037.13
2024-02-22T07:03:40.648Z,99059.25
2024-02-22T07:06:07.897Z,99040.47
2024-02-22T07:08:35.294Z,99049.84
2024-02-22T07:11:06.137Z,99052.38
2024-02-22T07:13:36.371Z,99048.09
2024-02-22T07:16:04.589Z,99047.22
2024-02-22T07:18:32.025Z,99043.81
2024-02-22T07:20:59.531Z,99040.38
2024-02-22T07:23:26.914Z,99047.19
2024-02-22T07:25:54.019Z,99047.19
2024-02-22T07:28:22.189Z,99048.94
2024-02-22T07:30:49.454Z,99036.94
2024-02-22T07:33:18.068Z,99036.91
2024-02-22T07:35:45.271Z,99029.16
2024-02-22T07:38:12.456Z,99035.97
2024-02-22T07:40:39.890Z,99031.69
2024-02-22T07:43:07.185Z,99023.13
2024-02-22T07:45:34.582Z,99020.53
2024-02-22T07:48:10.033Z,99001.72
2024-02-22T07:50:38.306Z,99005.88
2024-02-22T07:53:09.013Z,99010.09
2024-02-22T07:55:38.167Z,98994.66
2024-02-22T07:58:05.572Z,98998.88
2024-02-22T08:00:32.752Z,98991.97
2024-02-22T08:02:59.909Z,98995.34
2024-02-22T08:05:27.183Z,98983.34
2024-02-22T08:07:54.433Z,98979.84
2024-02-22T08:10:21.641Z,98966.13
2024-02-22T08:12:48.912Z,98965.25
2024-02-22T08:15:16.565Z,98964.31
2024-02-22T08:17:43.801Z,98961.69
2024-02-22T08:20:12.950Z,98949.63
2024-02-22T08:22:40.410Z,98947.00
2024-02-22T08:25:08.085Z,98944.44
2024-02-22T08:27:36.794Z,98954.56
2024-02-22T08:30:06.351Z,98939.94
2024-02-22T08:32:33.512Z,98936.50
2024-02-22T08:35:00.816Z,98932.88
2024-02-22T08:37:28.292Z,98928.47
2024-02-22T08:39:55.472Z,98922.34
2024-02-22T08:42:22.748Z,98917.06
2024-02-22T08:44:51.106Z,98918.69
2024-02-22T08:47:18.299Z,98906.44
2024-02-22T08:49:46.953Z,98909.66
2024-02-22T08:52:16.252Z,98904.28
2024-02-22T08:54:44.393Z,98909.28
2024-02-22T08:57:11.569Z,98883.56
2024-02-22T08:59:38.740Z,98902.09
2024-02-22T09:02:06.053Z,98900.22
2024-02-22T09:04:33.327Z,98886.41
2024-02-22T09:07:01.327Z,98879.56
2024-02-22T09:09:29.722Z,98871.72
2024-02-22T09:11:57.125Z,98870.78
2024-02-22T09:14:24.431Z,98861.22
2024-02-22T09:16:51.807Z,98860.22
2024-02-22T09:19:19.096Z,98846.53
2024-02-22T09:21:47.780Z,98854.94
2024-02-22T09:24:15.088Z,98847.19
2024-02-22T09:26:42.305Z,98842.81
2024-02-22T09:29:10.204Z,98846.22
2024-02-22T09:31:37.570Z,98829.88
2024-02-22T09:34:05.909Z,98838.28
2024-02-22T09:36:34.235Z,98836.63
2024-02-22T09:39:01.352Z,98842.53
2024-02-22T09:41:28.998Z,98829.72
2024-02-22T09:43:57.905Z,98830.41
2024-02-22T09:46:26.704Z,98832.03
2024-02-22T09:48:54.408Z,98819.00
2024-02-22T09:51:24.622Z,98813.75
2024-02-22T09:53:53.502Z,98814.41
2024-02-22T09:56:20.933Z,98803.16
2024-02-22T09:58:49.833Z,98795.41
2024-02-22T10:01:17.314Z,98809.88
2024-02-22T10:03:44.594Z,98802.97
2024-02-22T10:06:23.596Z,98794.34
2024-02-22T10:08:51.022Z,98789.06
2024-02-22T10:11:23.853Z,98783.91
2024-02-22T10:14:06.192Z,98786.34
2024-02-22T10:16:33.674Z,98777.63
2024-02-22T10:19:02.145Z,98768.94
2024-02-22T10:21:30.372Z,98767.16
2024-02-22T10:23:59.591Z,98771.50
2024-02-22T10:26:27.620Z,98761.16
2024-02-22T10:28:58.574Z,98761.97
2024-02-22T10:31:26.025Z,98760.22
2024-02-22T10:33:55.549Z,98750.00
2024-02-22T10:36:24.267Z,98747.31
2024-02-22T10:38:52.871Z,98755.06
2024-02-22T10:41:20.469Z,98732.94
2024-02-22T10:43:49.724Z,98736.31
2024-02-22T10:46:19.325Z,98732.94
2024-02-22T10:48:55.475Z,98738.09
2024-02-22T10:51:24.475Z,98725.28
2024-02-22T10:53:57.347Z,98724.56
2024-02-22T10:56:27.002Z,98727.22
2024-02-22T10:58:59.612Z,98728.16
2024-02-22T11:01:28.398Z,98724.84
2024-02-22T11:03:59.632Z,98714.88
2024-02-22T11:06:27.492Z,98713.22
2024-02-22T11:09:03.133Z,98709.06
2024-02-22T11:11:32.154Z,98713.47
2024-02-22T11:14:01.260Z,98699.78
2024-02-22T11:16:36.156Z,98705.00
2024-02-22T11:19:11.013Z,98707.59
2024-02-22T11:21:41.469Z,98697.44
2024-02-22T11:24:13.808Z,98696.69
2024-02-22T11:26:42.040Z,98686.47
2024-02-22T11:29:10.266Z,98678.09
2024-02-22T11:31:38.250Z,98678.09
2024-02-22T11:34:05.644Z,98676.31
2024-02-22T11:36:33.237Z,98671.16
2024-02-22T11:39:01.329Z,98665.25
2024-02-22T11:41:31.598Z,98664.50
2024-02-22T11:44:09.416Z,98662.78
2024-02-22T11:46:38.724Z,98654.28
2024-02-22T11:49:06.946Z,98650.00
2024-02-22T11:51:34.178Z,98650.88
2024-02-22T11:54:01.552Z,98647.50
2024-02-22T11:56:29.177Z,98640.66
2024-02-22T11:58:57.890Z,98621.81
2024-02-22T12:01:27.086Z,98637.28
2024-02-22T12:03:56.077Z,98621.81
2024-02-22T12:06:24.017Z,98627.06
2024-02-22T12:08:54.582Z,98610.06
2024-02-22T12:11:23.203Z,98617.75
2024-02-22T12:14:00.655Z,98605.00
2024-02-22T12:16:29.307Z,98604.91
2024-02-22T12:18:57.947Z,98594.69
2024-02-22T12:21:28.823Z,98609.19
2024-02-22T12:24:00.169Z,98601.47
2024-02-22T12:26:28.012Z,98592.94
2024-02-22T12:28:56.639Z,98587.78
2024-02-22T12:31:24.015Z,98582.66
2024-02-22T12:33:53.056Z,98577.50
2024-02-22T12:36:23.145Z,98575.81
2024-02-22T12:38:50.791Z,98560.44
2024-02-22T12:41:19.609Z,98559.66
2024-02-22T12:43:49.362Z,98557.06
2024-02-22T12:46:18.199Z,98553.59
2024-02-22T12:48:45.716Z,98558.75
2024-02-22T12:51:20.503Z,98550.13
2024-02-22T12:53:50.090Z,98548.47
2024-02-22T12:56:17.387Z,98533.03
2024-02-22T12:58:45.241Z,98538.16
2024-02-22T13:01:15.637Z,98519.34
2024-02-22T13:03:43.005Z,98521.91
2024-02-22T13:06:10.425Z,98516.75
2024-02-22T13:08:39.702Z,98511.63
2024-02-22T13:11:08.674Z,98507.38
2024-02-22T13:13:35.999Z,98507.19
2024-02-22T13:16:04.877Z,98494.38
2024-02-22T13:18:32.262Z,98502.94
2024-02-22T13:20:59.906Z,98496.91
2024-02-22T13:23:27.726Z,98486.69
2024-02-22T13:25:54.958Z,98494.31
2024-02-22T13:28:22.095Z,98484.03
2024-02-22T13:30:49.336Z,98477.22
2024-02-22T13:33:16.597Z,98472.88
2024-02-22T13:35:44.107Z,98473.75
2024-02-22T13:38:11.389Z,98458.38
2024-02-22T13:40:38.608Z,98463.50
2024-02-22T13:43:06.473Z,98461.69
2024-02-22T13:45:44.456Z,98453.97
2024-02-22T13:48:13.685Z,98452.28
2024-02-22T13:50:42.286Z,98452.28
2024-02-22T13:53:09.708Z,98452.28
2024-02-22T13:55:36.921Z,98438.53
2024-02-22T13:58:04.347Z,98435.13
2024-02-22T14:00:31.854Z,98422.28
2024-02-22T14:02:59.226Z,98426.47
2024-02-22T14:05:26.585Z,98413.59
2024-02-22T14:07:56.046Z,98420.41
2024-02-22T14:10:26.795Z,98409.31
2024-02-22T14:12:56.527Z,98404.97
2024-02-22T14:15:23.830Z,98407.56
2024-02-22T14:17:51.105Z,98399.13
2024-02-22T14:20:18.457Z,98394.72
2024-02-22T14:22:48.445Z,98395.59
2024-02-22T14:25:15.638Z,98380.97
2024-02-22T14:27:42.818Z,98385.09
2024-02-22T14:30:10.623Z,98379.13
2024-02-22T14:32:38.277Z,98380.78
2024-02-22T14:35:07.176Z,98382.47
2024-02-22T14:37:34.367Z,98374.81
2024-02-22T14:40:01.709Z,98374.81
2024-02-22T14:42:28.999Z,98374.81
2024-02-22T14:44:58.675Z,98366.38
2024-02-22T14:47:26.552Z,98361.31
2024-02-22T14:49:53.769Z,98361.22
2024-02-22T14:52:22.450Z,98356.16
2024-02-22T14:54:49.668Z,98354.41
2024-02-22T14:57:16.885Z,98349.25
2024-02-22T14:59:44.016Z,98356.09
2024-02-22T15:02:11.259Z,98338.09
2024-02-22T15:04:38.689Z,98342.41
2024-02-22T15:07:06.852Z,98330.53
2024-02-22T15:09:34.653Z,98335.59
2024-02-22T15:12:03.225Z,98326.19
2024-02-22T15:14:30.658Z,98331.28
2024-02-22T15:16:57.880Z,98321.81
2024-02-22T15:19:25.263Z,98321.81
2024-02-22T15:21:52.374Z,98325.19
2024-02-22T15:24:19.985Z,98312.31
2024-02-22T15:26:47.257Z,98314.81
2024-02-22T15:29:14.562Z,98300.38
2024-02-22T15:31:41.706Z,98299.28
2024-02-22T15:34:11.858Z,98299.28
2024-02-22T15:36:40.531Z,98288.22
2024-02-22T15:39:09.476Z,98294.13
2024-02-22T15:41:38.317Z,98292.44
2024-02-22T15:44:06.344Z,98286.50
2024-02-22T15:46:33.619Z,98284.03
2024-02-22T15:49:00.878Z,98277.19
2024-02-22T15:51:29.894Z,98285.78
2024-02-22T15:53:57.290Z,98270.44
2024-02-22T15:56:26.767Z,98278.97
2024-02-22T15:58:55.632Z,98266.28
2024-02-22T16:01:24.713Z,98283.41
2024-02-22T16:03:55.753Z,98272.31
2024-02-22T16:06:23.092Z,98278.34
2024-02-22T16:08:53.970Z,98281.81
2024-02-22T16:11:21.670Z,98273.25
2024-02-22T16:13:49.007Z,98267.25
2024-02-22T16:16:18.249Z,98268.28
2024-02-22T16:18:45.900Z,98250.41
2024-02-22T16:21:13.305Z,98262.22
2024-02-22T16:23:40.593Z,98263.13
2024-02-22T16:26:09.274Z,98271.59
2024-02-22T16:28:37.013Z,98254.72
2024-02-22T16:31:04.380Z,98258.81
2024-02-22T16:33:31.791Z,98253.69
2024-02-22T16:36:02.891Z,98252.00
2024-02-22T16:38:30.383Z,98265.78
2024-02-22T16:40:58.278Z,98254.63
2024-02-22T16:43:26.413Z,98242.78
2024-02-22T16:45:54.888Z,98248.72
2024-02-22T16:48:22.204Z,98253.88
2024-02-22T16:50:49.526Z,98248.72
2024-02-22T16:53:16.801Z,98247.06
2024-02-22T16:55:44.059Z,98235.16
2024-02-22T16:58:11.340Z,98231.69
2024-02-22T17:00:38.678Z,98233.38
2024-02-22T17:03:06.116Z,98234.25
2024-02-22T17:05:33.948Z,98223.13
2024-02-22T17:08:01.217Z,98214.56
2024-02-22T17:10:28.440Z,98215.56
2024-02-22T17:12:55.768Z,98216.34
2024-02-22T17:15:22.945Z,98210.50
2024-02-22T17:17:52.256Z,98209.53
2024-02-22T17:20:19.679Z,98212.09
2024-02-22T17:22:47.396Z,98217.22
2024-02-22T17:25:14.878Z,98209.53
2024-02-22T17:27:42.161Z,98201.78
2024-02-22T17:30:12.697Z,98199.34
2024-02-22T17:32:39.942Z,98200.91
2024-02-22T17:35:07.493Z,98198.41
2024-02-22T17:37:34.722Z,98192.41
2024-02-22T17:40:02.354Z,98194.94
2024-02-22T17:42:29.529Z,98188.94
2024-02-22T17:44:56.690Z,98186.38
2024-02-22T17:47:25.273Z,98183.81
2024-02-22T17:49:52.612Z,98185.56
2024-02-22T17:52:19.842Z,98182.19
2024-02-22T17:54:47.047Z,98162.63
2024-02-22T17:57:15.446Z,98177.81
2024-02-22T17:59:42.722Z,98173.63
2024-02-22T18:02:09.951Z,98163.34
2024-02-22T18:04:37.289Z,98160.84
2024-02-22T18:07:04.760Z,98153.91
2024-02-22T18:09:32.229Z,98159.94
2024-02-22T18:12:02.087Z,98142.94
2024-02-22T18:14:33.398Z,98141.94
2024-02-22T18:17:00.799Z,98142.84
2024-02-22T18:19:28.085Z,98141.16
2024-02-22T18:21:56.171Z,98136.91
2024-02-22T18:24:23.649Z,98139.47
2024-02-22T18:26:50.828Z,98132.66
2024-02-22T18:29:18.153Z,98127.69
2024-02-22T18:31:45.484Z,98139.56
2024-02-22T18:34:13.117Z,98130.16
2024-02-22T18:36:40.452Z,98129.28
2024-02-22T18:39:09.419Z,98125.00
2024-02-22T18:41:40.226Z,98124.97
2024-02-22T18:44:07.508Z,98110.69
2024-02-22T18:46:34.859Z,98112.44
2024-02-22T18:49:02.204Z,98119.09
2024-02-22T18:51:29.988Z,98111.41
2024-02-22T18:53:57.209Z,98120.88
2024-02-22T18:56:24.403Z,98120.06
2024-02-22T18:58:52.860Z,98122.63
2024-02-22T19:01:20.033Z,98117.50
2024-02-22T19:03:47.318Z,98117.50
2024-02-22T19:06:14.647Z,98108.91
2024-02-22T19:08:41.828Z,98104.63
2024-02-22T19:11:09.122Z,98100.38
2024-02-22T19:13:36.295Z,98103.75
2024-02-22T19:16:03.634Z,98102.06
2024-02-22T19:18:30.784Z,98097.75
2024-02-22T19:20:59.333Z,98088.34
2024-02-22T19:23:27.028Z,98083.19
2024-02-22T19:25:56.090Z,98072.09
2024-02-22T19:28:24.580Z,98064.28
2024-02-22T19:30:51.855Z,98054.09
2024-02-22T19:33:19.882Z,98065.97
2024-02-22T19:35:47.124Z,98056.53
2024-02-22T19:38:21.907Z,98052.28
2024-02-22T19:40:52.628Z,98036.91
2024-02-22T19:43:20.499Z,98039.41
2024-02-22T19:45:47.783Z,98036.97
2024-02-22T19:48:15.070Z,98031.78
2024-02-22T19:50:42.882Z,98024.91
2024-02-22T19:53:10.277Z,98021.56
2024-02-22T19:55:37.625Z,98024.91
2024-02-22T19:58:05.377Z,98028.41
2024-02-22T20:00:32.736Z,98025.03
2024-02-22T20:03:00.033Z,98024.19
2024-02-22T20:05:27.351Z,98011.47
2024-02-22T20:07:55.330Z,98022.50
2024-02-22T20:10:23.119Z,98007.94
2024-02-22T20:12:50.459Z,98011.47
2024-02-22T20:15:18.617Z,98013.91
2024-02-22T20:17:45.924Z,98007.94
2024-02-22T20:20:13.288Z,98003.75
2024-02-22T20:22:40.740Z,98015.56
2024-02-22T20:25:08.365Z,98009.59
2024-02-22T20:27:36.089Z,98003.53
2024-02-22T20:30:10.037Z,98007.94
2024-02-22T20:32:37.744Z,98012.03
2024-02-22T20:35:10.336Z,98011.19
2024-02-22T20:37:43.103Z,97992.28
2024-02-22T20:40:10.871Z,98001.75
2024-02-22T20:42:38.830Z,97994.06
2024-02-22T20:45:07.398Z,97999.09
2024-02-22T20:47:34.720Z,97987.03
2024-02-22T20:50:02.207Z,97981.91
2024-02-22T20:52:30.565Z,97988.72
2024-02-22T20:54:58.249Z,97983.56
2024-02-22T20:57:25.413Z,97973.38
2024-02-22T20:59:52.609Z,97978.44
2024-02-22T21:02:19.827Z,97967.47
2024-02-22T21:04:47.073Z,97962.28
2024-02-22T21:07:14.691Z,97973.22
2024-02-22T21:09:42.187Z,97975.69
2024-02-22T21:12:09.505Z,97976.56
2024-02-22T21:14:36.796Z,97964.59
2024-02-22T21:17:04.153Z,97955.97
2024-02-22T21:19:32.022Z,97962.81
2024-02-22T21:22:00.209Z,97956.84
2024-02-22T21:24:28.358Z,97957.78
2024-02-22T21:26:55.477Z,97951.69
2024-02-22T21:29:22.821Z,97953.38
2024-02-22T21:31:52.760Z,97944.06
2024-02-22T21:34:20.461Z,97942.16
2024-02-22T21:36:47.820Z,97938.78
2024-02-22T21:39:14.954Z,97940.44
2024-02-22T21:41:42.195Z,97942.13
2024-02-22T21:44:09.426Z,97940.44
2024-02-22T21:46:36.654Z,97927.66
2024-02-22T21:49:04.680Z,97927.75
2024-02-22T21:51:31.954Z,97935.22
2024-02-22T21:53:59.160Z,97932.66
2024-02-22T21:56:26.513Z,97931.84
2024-02-22T21:58:53.737Z,97931.84
2024-02-22T22:01:21.004Z,97928.59
2024-02-22T22:03:48.214Z,97921.66
2024-02-22T22:06:16.729Z,97920.84
2024-02-22T22:08:43.943Z,97919.88
2024-02-22T22:11:11.320Z,97916.41
2024-02-22T22:13:41.585Z,97923.22
2024-02-22T22:16:11.244Z,97915.59
2024-02-22T22:18:39.115Z,97923.31
2024-02-22T22:21:20.844Z,97918.19
2024-02-22T22:23:55.670Z,97922.53
2024-02-22T22:26:22.978Z,97926.91
2024-02-22T22:28:50.960Z,97926.06
2024-02-22T22:31:18.122Z,97910.72
2024-02-22T22:33:47.036Z,97921.78
2024-02-22T22:36:17.620Z,97914.13
2024-02-22T22:38:45.126Z,97911.50
2024-02-22T22:41:12.425Z,97913.16
2024-02-22T22:43:43.458Z,97899.50
2024-02-22T22:46:12.763Z,97904.44
2024-02-22T22:48:39.870Z,97901.78
2024-02-22T22:51:07.133Z,97900.03
2024-02-22T22:53:34.190Z,97889.66
2024-02-22T22:56:01.654Z,97895.63
2024-02-22T22:58:28.898Z,97898.16
2024-02-22T23:00:56.044Z,97892.06
2024-02-22T23:03:23.187Z,97894.56
2024-02-22T23:05:50.407Z,97889.38
2024-02-22T23:08:17.594Z,97885.91
2024-02-22T23:10:45.070Z,97869.59
2024-02-22T23:13:12.255Z,97871.41
2024-02-22T23:15:39.422Z,97864.53
2024-02-22T23:18:07.799Z,97860.97
2024-02-22T23:20:35.577Z,97860.84
2024-02-22T23:23:02.787Z,97867.66
2024-02-22T23:25:30.029Z,97844.50
2024-02-22T23:27:57.176Z,97855.59
2024-02-22T23:30:24.430Z,97850.34
2024-02-22T23:32:51.643Z,97855.47
2024-02-22T23:35:19.095Z,97851.13
2024-02-22T23:37:46.404Z,97846.88
2024-02-22T23:40:13.544Z,97847.66
2024-02-22T23:42:40.771Z,97840.03
2024-02-22T23:45:08.064Z,97841.63
2024-02-22T23:47:35.516Z,97826.31
2024-02-22T23:50:03.046Z,97844.13
2024-02-22T23:52:31.269Z,97850.13
2024-02-22T23:54:59.009Z,97836.34
2024-02-22T23:57:27.988Z,97850.00
2024-02-22T23:59:55.154Z,97846.53
